createdAt,value
2023-02-05T00:10:22.295Z,17.17
2023-02-05T00:27:53.283Z,14.97
2023-02-05T00:33:01.275Z,13.33
2023-02-05T00:50:21.061Z,12.07
2023-02-05T00:55:25.825Z,12.57
2023-02-05T01:00:33.473Z,11.33
2023-02-05T01:05:41.624Z,9.93
2023-02-05T01:10:55.261Z,14.00
2023-02-05T01:16:14.025Z,10.10
2023-02-05T01:21:18.979Z,10.07
2023-02-05T01:26:28.025Z,10.40
2023-02-05T01:37:07.282Z,10.57
2023-02-05T01:42:41.281Z,9.67
2023-02-05T01:47:45.533Z,10.67
2023-02-05T01:52:51.931Z,12.33
2023-02-05T01:58:26.014Z,10.97
2023-02-05T02:03:46.704Z,11.07
2023-02-05T02:08:54.968Z,10.87
2023-02-05T02:14:12.038Z,11.10
2023-02-05T02:19:41.067Z,11.67
2023-02-05T02:25:36.433Z,11.10
2023-02-05T02:31:16.551Z,12.73
2023-02-05T02:36:46.624Z,11.07
2023-02-05T02:42:03.114Z,16.10
2023-02-05T02:47:17.619Z,13.33
2023-02-05T02:52:25.616Z,15.70
2023-02-05T02:57:40.574Z,14.20
2023-02-05T03:13:30.834Z,12.70
2023-02-05T03:18:41.322Z,17.93
2023-02-05T03:23:50.766Z,15.20
2023-02-05T03:28:59.875Z,13.13
2023-02-05T03:34:33.525Z,13.23
2023-02-05T03:40:09.606Z,15.30
2023-02-05T03:45:25.612Z,12.27
2023-02-05T03:50:49.967Z,12.33
2023-02-05T03:56:03.306Z,13.93
2023-02-05T04:01:06.513Z,12.33
2023-02-05T04:06:11.474Z,12.43
2023-02-05T04:11:35.447Z,12.70
2023-02-05T04:16:52.966Z,15.30
2023-02-05T04:21:55.704Z,12.43
2023-02-05T04:27:03.473Z,12.50
2023-02-05T04:32:11.119Z,14.40
2023-02-05T04:37:12.932Z,11.63
2023-02-05T04:42:14.699Z,13.20
2023-02-05T04:47:26.728Z,11.90
2023-02-05T04:52:35.907Z,13.23
2023-02-05T04:57:45.244Z,12.67
2023-02-05T05:02:50.909Z,10.40
2023-02-05T05:08:27.478Z,14.47
2023-02-05T05:13:35.601Z,12.07
2023-02-05T05:18:38.335Z,9.93
2023-02-05T05:24:10.811Z,15.17
2023-02-05T05:29:13.516Z,14.70
2023-02-05T05:34:15.572Z,13.13
2023-02-05T05:50:35.234Z,14.20
2023-02-05T05:55:53.037Z,16.17
2023-02-05T06:01:11.353Z,16.60
2023-02-05T06:06:22.680Z,13.33
2023-02-05T06:11:37.961Z,14.87
2023-02-05T06:17:03.172Z,21.37
2023-02-05T06:27:50.376Z,14.83
2023-02-05T06:33:10.555Z,15.97
2023-02-05T06:38:15.619Z,17.03
2023-02-05T06:43:21.251Z,18.27
2023-02-05T06:49:02.516Z,16.53
2023-02-05T06:54:21.218Z,14.67
2023-02-05T06:59:53.590Z,18.97
2023-02-05T07:10:59.367Z,22.03
2023-02-05T07:16:32.250Z,24.93
2023-02-05T07:27:52.269Z,19.73
2023-02-05T07:33:05.951Z,20.53
2023-02-05T07:39:15.820Z,23.73
2023-02-05T07:44:02.971Z,27.83
2023-02-05T07:49:22.664Z,22.77
2023-02-05T07:54:55.568Z,26.57
2023-02-05T08:00:29.662Z,30.07
2023-02-05T08:05:50.995Z,26.57
2023-02-05T08:11:22.788Z,26.03
2023-02-05T08:16:36.739Z,22.40
2023-02-05T08:21:56.232Z,30.47
2023-02-05T08:32:32.774Z,26.83
2023-02-05T08:37:54.351Z,25.57
2023-02-05T08:43:29.101Z,33.73
2023-02-05T08:49:31.403Z,28.83
2023-02-05T08:55:12.089Z,71.57
2023-02-05T09:00:37.908Z,34.87
2023-02-05T09:05:46.964Z,34.67
2023-02-05T09:10:48.690Z,36.57
2023-02-05T09:16:30.366Z,34.27
2023-02-05T09:21:35.517Z,39.67
2023-02-05T09:26:38.738Z,32.87
2023-02-05T09:38:02.058Z,34.57
2023-02-05T09:43:40.496Z,32.40
2023-02-05T09:49:13.722Z,32.27
2023-02-05T09:54:54.524Z,36.83
2023-02-05T10:00:31.276Z,34.53
2023-02-05T10:06:42.384Z,40.17
2023-02-05T10:12:22.875Z,37.03
2023-02-05T10:17:52.736Z,37.27
2023-02-05T10:36:31.841Z,27.03
2023-02-05T11:51:09.801Z,25.20
2023-02-05T12:03:14.834Z,20.43
2023-02-05T12:09:12.765Z,18.60
2023-02-05T12:32:39.826Z,21.40
2023-02-05T12:38:58.181Z,19.47
2023-02-05T12:57:15.093Z,22.10
2023-02-05T13:02:35.758Z,18.83
2023-02-05T13:07:43.253Z,19.13
2023-02-05T13:13:48.341Z,19.23
2023-02-05T14:04:47.114Z,11.77
2023-02-05T14:29:46.335Z,11.80
2023-02-05T14:42:03.435Z,12.03
2023-02-05T15:13:18.238Z,24.63
2023-02-05T15:24:29.264Z,31.13
2023-02-05T15:29:46.282Z,12.67
2023-02-05T15:35:45.234Z,12.20
2023-02-05T16:07:25.994Z,10.93
2023-02-05T16:38:14.843Z,20.73
2023-02-05T16:44:18.581Z,12.60
2023-02-05T17:15:55.303Z,14.53
2023-02-05T17:22:03.245Z,20.03
2023-02-05T17:39:30.252Z,23.00
2023-02-05T17:44:54.647Z,25.00
2023-02-05T18:45:59.767Z,29.33
2023-02-05T19:11:08.495Z,29.27
2023-02-05T20:20:10.350Z,21.07
2023-02-05T20:25:35.519Z,18.13
2023-02-05T20:56:08.904Z,11.43
2023-02-05T21:02:29.773Z,16.30
2023-02-05T21:27:16.384Z,14.53
2023-02-05T22:04:52.208Z,12.87
2023-02-05T22:10:48.750Z,17.97
2023-02-05T22:15:32.999Z,18.87
2023-02-05T22:20:35.764Z,14.20
2023-02-05T22:25:37.662Z,10.40
2023-02-05T22:30:49.612Z,12.47
2023-02-05T22:36:16.092Z,10.70
2023-02-05T22:47:56.587Z,15.43
2023-02-05T22:53:02.702Z,13.47
2023-02-05T22:58:38.386Z,13.47
2023-02-05T23:09:14.846Z,10.93
2023-02-05T23:15:52.598Z,14.60
2023-02-05T23:20:07.106Z,13.67
2023-02-05T23:25:19.129Z,9.97
2023-02-05T23:30:36.343Z,9.63
2023-02-05T23:35:49.697Z,12.07
2023-02-05T23:41:18.347Z,15.17
2023-02-05T23:46:20.256Z,13.67
2023-02-05T23:51:31.978Z,8.77
2023-02-05T23:56:47.152Z,7.90
